Startpagina
METAR-TAF:

METAR-TAF

Vliegvelden :

Bahía Blanca, Argentinië

breedte: 38-44S, lengte: 062-10W, hoogte: 75 m

METAR: ontbreekt

Tijdstip: 10:11 (13:11 UTC)

Verwachting

Dit bericht is 26 uur en het 11 minuten geleden gemaakt, om 11:00 UTC
Verwachting geldig van 24 om 12 UTC tot 25 om 12 UTC
Wind 15 kt uit het noorden
Zicht 10 km of meer
geen wolken onder 1500 m en geen cumulonimbus
Wijzigt naar
van 24 om 18 UTC tot 24 om 20 UTC
Wind 15 kt uit het noorden met uitschieters tot 25 kt

TAF: SAZB 241100Z 2412/2512 36015KT CAVOK TX40/2419Z TN25/2409Z BECMG 2418/2420 36015G25KT

Waarnemingen en weersverwachtingen van meer dan 4000 vliegvelden (METAR en TAF).

De beschikbare stations zijn de gele en rode punten op de kaart.

Ga met uw muis naar het station om de naam te zien.

Klik dan om waarnemingen en weersverwachtingen te zien.

kaart wijzigen: klik op de groene knoppen met een zwart kruis om in te zoomen, op de groene knop met een streepje om uit te zoomen of op de groene pijlen voor aangrenzende kaarten.


METAR-TAF: